Columbia/McEntire ANGS, South Carolina
Current Conditions -  °F | °C
As of 2:58 AM on Friday 31 Oct 2014 (Local Time) from KMMT Reporting Station
Clear Clear  
Wind Chill: 52°   Ceiling: Unl
Heat Index: 52°   Visibility: 10mi
Dew Point: 43°   Wind: 3mph
Humidity: 71%   Direction: 40°NE
Pressure: 29.93"   Gusts: NA
Location:  33.91°N, 80.8°W
Report Text: KMMT 310658Z AUTO 04003KT 10SM CLR 11/06 A2993 RMK AO2 SLP137 T01100059
Loading
Personal Weather Stations






























Interactive Weather Map
Tropical Storm Tracking
New forecast layout! Learn more

10-Day Weather Forecast

Advertisements
Track Severe Weather on mobile